Time;durP1;ratioP1;P1;durP2;ratioP2;P2;SDS_P1;SDS_P2;PMS_P1;PMS_P2;Temp;Humidity;BMP_temperature;BMP_pressure;BME280_temperature;BME280_humidity;BME280_pressure;Samples;Min_cycle;Max_cycle;Signal;HPM_P1;HPM_P2
2022/09/01 00:02:28;;;;;;;11.13;4.50;;;20.70;99.90;;;;;;5064973;28;20176;-71
2022/09/01 00:04:57;;;;;;;13.13;5.53;;;20.70;99.90;;;;;;5062329;28;20241;-71
2022/09/01 00:07:28;;;;;;;14.90;4.73;;;20.30;99.90;;;;;;5073368;28;20265;-71
2022/09/01 00:09:56;;;;;;;16.23;4.60;;;19.60;99.90;;;;;;5072460;28;20332;-72
2022/09/01 00:12:24;;;;;;;18.93;5.20;;;19.30;99.90;;;;;;5064217;28;20211;-69
2022/09/01 00:14:51;;;;;;;12.67;4.53;;;19.40;99.90;;;;;;5073284;28;20269;-69
2022/09/01 00:17:19;;;;;;;17.30;4.90;;;19.40;99.90;;;;;;5072932;28;20192;-71
2022/09/01 00:19:46;;;;;;;16.67;5.50;;;19.40;99.90;;;;;;5072938;28;20187;-71
2022/09/01 00:22:14;;;;;;;15.03;4.73;;;20.40;99.90;;;;;;5073175;28;20191;-71
2022/09/01 00:24:41;;;;;;;12.70;4.63;;;21.50;99.90;;;;;;5073228;28;20180;-72
2022/09/01 00:27:08;;;;;;;15.60;5.27;;;21.20;99.90;;;;;;5073290;28;20180;-69
2022/09/01 00:29:36;;;;;;;19.67;5.30;;;21.30;99.90;;;;;;5073208;28;20177;-70
2022/09/01 00:32:04;;;;;;;13.43;4.33;;;21.50;99.90;;;;;;5067907;28;20211;-69
2022/09/01 00:34:32;;;;;;;14.47;5.37;;;22.00;99.90;;;;;;5073225;28;20240;-70
2022/09/01 00:36:59;;;;;;;17.00;4.63;;;21.80;99.90;;;;;;5072809;28;20603;-69
2022/09/01 00:39:27;;;;;;;10.93;4.17;;;22.00;99.90;;;;;;5073199;28;20176;-70
2022/09/01 00:41:54;;;;;;;12.20;4.30;;;21.60;99.90;;;;;;5071249;28;20183;-68
2022/09/01 00:44:22;;;;;;;12.17;5.50;;;21.40;99.90;;;;;;5072981;28;20178;-69
2022/09/01 00:46:51;;;;;;;10.03;3.90;;;21.70;99.90;;;;;;5063166;28;20242;-71
2022/09/01 00:49:36;;;;;;;12.23;3.93;;;22.40;99.90;;;;;;5070684;28;20185;-76
2022/09/01 00:52:14;;;;;;;10.80;3.10;;;23.00;99.90;;;;;;5072131;28;20246;-70
2022/09/01 00:54:47;;;;;;;20.10;4.23;;;22.80;99.90;;;;;;5072964;28;20315;-71
2022/09/01 00:57:15;;;;;;;14.00;3.17;;;23.20;99.90;;;;;;5072542;28;20184;-69
2022/09/01 01:00:11;;;;;;;11.40;3.30;;;22.60;99.90;;;;;;5072693;28;20987;-71
2022/09/01 01:02:43;;;;;;;12.50;3.63;;;22.20;99.90;;;;;;5072613;28;20743;-70
2022/09/01 01:05:11;;;;;;;7.97;3.00;;;22.90;99.90;;;;;;5071253;28;20185;-70
2022/09/01 01:07:43;;;;;;;11.53;3.60;;;23.50;99.90;;;;;;5072283;28;20195;-70
2022/09/01 01:10:14;;;;;;;12.47;3.50;;;24.10;99.90;;;;;;5072289;28;20187;-71
2022/09/01 01:12:42;;;;;;;14.87;3.37;;;24.10;99.90;;;;;;5072040;28;20633;-69
2022/09/01 01:15:16;;;;;;;9.03;3.27;;;23.70;99.90;;;;;;5072234;28;20222;-72
2022/09/01 01:17:43;;;;;;;12.13;3.63;;;23.90;99.90;;;;;;5072221;28;20257;-70
2022/09/01 01:23:18;;;;;;;13.77;4.23;;;23.40;99.90;;;;;;5072285;28;20199;-70
2022/09/01 01:25:50;;;;;;;9.07;3.70;;;23.70;99.90;;;;;;5071719;28;20210;-69
2022/09/01 01:28:25;;;;;;;14.13;4.20;;;23.10;99.90;;;;;;5070334;28;20523;-69
2022/09/01 01:30:56;;;;;;;6.30;3.00;;;23.40;99.90;;;;;;5070324;28;20298;-70
2022/09/01 01:33:27;;;;;;;14.90;3.63;;;24.00;99.90;;;;;;5067707;28;20752;-70
2022/09/01 01:35:56;;;;;;;10.47;3.17;;;23.60;99.90;;;;;;5057881;28;20180;-70
2022/09/01 01:38:26;;;;;;;15.27;3.63;;;24.20;99.90;;;;;;5052151;28;20547;-69
2022/09/01 01:40:54;;;;;;;12.67;3.67;;;24.20;99.90;;;;;;5066059;28;20180;-70
2022/09/01 01:43:23;;;;;;;10.87;3.37;;;24.40;99.90;;;;;;5071710;28;20679;-68
2022/09/01 01:45:53;;;;;;;8.93;3.10;;;24.20;99.90;;;;;;5072005;28;20606;-69
2022/09/01 01:48:23;;;;;;;7.90;3.10;;;24.40;99.90;;;;;;5047709;28;20661;-70
2022/09/01 01:50:53;;;;;;;11.20;3.23;;;23.70;99.90;;;;;;5071699;28;20524;-71
2022/09/01 01:53:21;;;;;;;8.93;2.73;;;23.60;99.90;;;;;;5070995;28;20298;-71
2022/09/01 01:55:50;;;;;;;9.60;2.60;;;24.20;99.90;;;;;;5071737;28;20187;-71
2022/09/01 01:58:18;;;;;;;9.53;2.80;;;23.60;99.90;;;;;;5070539;28;20191;-70
2022/09/01 02:00:48;;;;;;;8.87;2.77;;;23.50;99.90;;;;;;5071569;28;20184;-70
2022/09/01 02:03:19;;;;;;;8.63;2.80;;;23.70;99.90;;;;;;5071762;28;20320;-70
2022/09/01 02:05:48;;;;;;;10.70;3.10;;;23.60;99.90;;;;;;5071376;28;20277;-70
2022/09/01 02:08:19;;;;;;;11.97;3.20;;;23.60;99.90;;;;;;5070910;28;20195;-69
2022/09/01 02:10:52;;;;;;;7.73;2.90;;;23.00;99.90;;;;;;5071718;28;20182;-70
2022/09/01 02:13:24;;;;;;;9.03;2.60;;;22.70;99.90;;;;;;5071475;28;20579;-69
2022/09/01 02:15:53;;;;;;;10.70;2.40;;;22.20;99.90;;;;;;5070780;28;20268;-71
2022/09/01 02:18:35;;;;;;;7.13;2.60;;;23.30;99.90;;;;;;5071440;28;20187;-71
2022/09/01 02:21:09;;;;;;;9.27;2.97;;;24.20;99.90;;;;;;5071962;28;20312;-70
2022/09/01 02:23:39;;;;;;;10.20;2.47;;;24.30;99.90;;;;;;5069589;28;20193;-70
2022/09/01 02:26:10;;;;;;;10.10;2.57;;;24.70;99.90;;;;;;5069685;28;20554;-71
2022/09/01 02:28:41;;;;;;;11.70;2.80;;;25.40;99.90;;;;;;5071357;28;20191;-69
2022/09/01 02:31:10;;;;;;;7.03;2.57;;;25.10;99.90;;;;;;5069788;28;20553;-71
2022/09/01 02:33:39;;;;;;;6.17;2.47;;;25.60;99.90;;;;;;5070927;28;20223;-69
2022/09/01 02:36:12;;;;;;;5.43;1.97;;;25.60;99.90;;;;;;5057392;28;20530;-69
2022/09/01 02:38:42;;;;;;;8.43;2.33;;;24.90;99.90;;;;;;5051498;28;20173;-69
2022/09/01 02:41:14;;;;;;;7.27;2.80;;;24.00;99.90;;;;;;5052065;28;20176;-68
2022/09/01 02:43:45;;;;;;;6.67;2.30;;;23.40;99.90;;;;;;5067022;28;20184;-69
2022/09/01 02:46:14;;;;;;;6.83;2.43;;;23.40;99.90;;;;;;5069420;28;20202;-69
2022/09/01 02:48:44;;;;;;;11.40;2.70;;;23.10;99.90;;;;;;5069857;28;20176;-69
2022/09/01 02:51:15;;;;;;;8.43;2.30;;;23.30;99.90;;;;;;5071043;28;20266;-69
2022/09/01 02:53:51;;;;;;;10.27;2.97;;;23.30;99.90;;;;;;5070782;28;20755;-69
2022/09/01 02:56:21;;;;;;;7.13;1.83;;;23.30;99.90;;;;;;5071407;28;20196;-69
2022/09/01 02:58:49;;;;;;;6.33;2.63;;;23.70;99.90;;;;;;5070976;28;20190;-70
2022/09/01 03:01:23;;;;;;;6.67;2.20;;;23.70;99.90;;;;;;5064903;28;20188;-70
2022/09/01 03:03:52;;;;;;;6.33;2.57;;;23.30;99.90;;;;;;5070943;28;20657;-70
2022/09/01 03:06:22;;;;;;;7.83;2.30;;;23.40;99.90;;;;;;5070522;28;20236;-70
2022/09/01 03:08:55;;;;;;;7.33;2.27;;;23.40;99.90;;;;;;5070402;28;20172;-71
2022/09/01 03:11:23;;;;;;;8.97;2.73;;;23.80;99.90;;;;;;5064438;28;20198;-70
2022/09/01 03:13:52;;;;;;;5.50;2.00;;;24.10;99.90;;;;;;5071747;28;20724;-70
2022/09/01 03:16:21;;;;;;;5.27;2.10;;;24.20;99.90;;;;;;5072636;28;20242;-70
2022/09/01 03:18:49;;;;;;;6.13;3.10;;;24.40;99.90;;;;;;5072410;28;20182;-70
2022/09/01 03:21:17;;;;;;;5.13;2.00;;;24.80;99.90;;;;;;5072279;28;20199;-69
2022/09/01 03:23:46;;;;;;;7.77;2.27;;;25.00;99.90;;;;;;5072353;28;20241;-69
2022/09/01 03:26:17;;;;;;;6.70;2.27;;;25.00;99.90;;;;;;5072421;28;20211;-70
2022/09/01 03:28:45;;;;;;;5.03;2.13;;;24.60;99.90;;;;;;5075050;28;20175;-74
2022/09/01 03:31:13;;;;;;;7.77;2.50;;;23.90;99.90;;;;;;5075841;28;20183;-71
2022/09/01 03:33:40;;;;;;;5.33;2.40;;;23.60;99.90;;;;;;5075834;28;20558;-69
2022/09/01 03:36:17;;;;;;;7.83;2.83;;;23.70;99.90;;;;;;5075567;28;20229;-69
2022/09/01 03:38:50;;;;;;;3.80;1.73;;;24.00;99.90;;;;;;5075851;28;20198;-69
2022/09/01 03:41:24;;;;;;;8.77;2.23;;;24.20;99.90;;;;;;5075488;28;20528;-69
2022/09/01 03:43:55;;;;;;;9.47;2.67;;;24.10;99.90;;;;;;5075718;28;20178;-71
2022/09/01 03:46:24;;;;;;;5.40;2.00;;;24.00;99.90;;;;;;5075378;28;20195;-70
2022/09/01 03:48:54;;;;;;;5.97;1.47;;;23.90;99.90;;;;;;5075525;28;20186;-69
2022/09/01 03:51:22;;;;;;;3.43;1.50;;;23.50;99.90;;;;;;5075190;28;20238;-69
2022/09/01 03:53:56;;;;;;;6.17;2.00;;;23.30;99.90;;;;;;5075310;28;20217;-71
2022/09/01 03:56:25;;;;;;;6.37;1.93;;;23.40;99.90;;;;;;5075309;28;20175;-70
2022/09/01 03:58:55;;;;;;;6.47;1.83;;;23.60;99.90;;;;;;5075312;28;20184;-69
2022/09/01 04:01:22;;;;;;;6.63;1.73;;;23.80;99.90;;;;;;5075341;28;20175;-70
2022/09/01 04:03:51;;;;;;;6.53;1.60;;;24.20;99.90;;;;;;5075260;28;20536;-71
2022/09/01 04:06:20;;;;;;;5.77;1.97;;;24.30;99.90;;;;;;5075037;28;20174;-70
2022/09/01 04:08:47;;;;;;;6.67;1.90;;;24.30;99.90;;;;;;5075058;28;20195;-71
2022/09/01 04:11:17;;;;;;;5.30;1.93;;;24.30;99.90;;;;;;5075167;28;20176;-71
2022/09/01 04:13:46;;;;;;;7.47;2.07;;;24.30;99.90;;;;;;5074852;28;20259;-69
2022/09/01 04:19:24;;;;;;;4.67;1.50;;;24.20;99.90;;;;;;5075385;28;20182;-71
2022/09/01 04:21:54;;;;;;;6.63;2.20;;;24.30;99.90;;;;;;5075036;28;20203;-72
2022/09/01 04:24:23;;;;;;;3.43;1.73;;;24.20;99.90;;;;;;5074890;28;20274;-68
2022/09/01 04:26:52;;;;;;;7.07;1.80;;;23.90;99.90;;;;;;5074738;28;20172;-68
2022/09/01 04:29:27;;;;;;;8.57;2.10;;;24.00;99.90;;;;;;5074828;28;20174;-69
2022/09/01 04:32:00;;;;;;;4.83;1.83;;;23.80;99.90;;;;;;5074719;28;20206;-70
2022/09/01 04:34:35;;;;;;;9.07;2.00;;;23.90;99.90;;;;;;5074635;28;20189;-69
2022/09/01 04:37:11;;;;;;;5.60;1.70;;;24.10;99.90;;;;;;5075047;28;20580;-68
2022/09/01 04:39:51;;;;;;;1.73;1.50;;;23.90;99.90;;;;;;5072835;28;20553;-68
2022/09/01 04:42:22;;;;;;;6.10;2.00;;;23.70;99.90;;;;;;5074580;28;20178;-68
2022/09/01 04:44:51;;;;;;;6.03;1.70;;;24.10;99.90;;;;;;5074464;28;20199;-69
2022/09/01 04:47:28;;;;;;;6.50;1.63;;;23.90;99.90;;;;;;5074355;28;20240;-68
2022/09/01 04:50:00;;;;;;;4.67;2.10;;;23.70;99.90;;;;;;5074307;28;20183;-68
2022/09/01 04:52:30;;;;;;;2.43;1.60;;;23.80;99.90;;;;;;5074231;28;20644;-68
2022/09/01 04:54:58;;;;;;;2.67;1.50;;;24.10;99.90;;;;;;5074414;28;20174;-69
2022/09/01 04:57:28;;;;;;;4.13;1.50;;;24.10;99.90;;;;;;5074287;28;20514;-69
2022/09/01 04:59:57;;;;;;;5.90;1.90;;;23.70;99.90;;;;;;5073285;28;20175;-69
2022/09/01 05:02:32;;;;;;;6.57;1.90;;;23.90;99.90;;;;;;5074509;28;20188;-69
2022/09/01 05:05:11;;;;;;;4.03;1.60;;;23.90;99.90;;;;;;5074152;28;20627;-68
2022/09/01 05:07:42;;;;;;;6.53;1.83;;;23.90;99.90;;;;;;5074206;28;20177;-68
2022/09/01 05:10:17;;;;;;;4.23;1.50;;;23.70;99.90;;;;;;5072945;28;20239;-69
2022/09/01 05:12:45;;;;;;;5.70;1.70;;;23.70;99.90;;;;;;5073875;28;20207;-69
2022/09/01 05:15:19;;;;;;;8.53;1.93;;;23.40;99.90;;;;;;5073804;28;20215;-70
2022/09/01 05:17:48;;;;;;;5.27;1.77;;;23.50;99.90;;;;;;5074014;28;20273;-69
2022/09/01 05:20:20;;;;;;;3.80;1.50;;;23.60;99.90;;;;;;5073951;28;20523;-69
2022/09/01 05:22:48;;;;;;;6.83;1.80;;;23.60;99.90;;;;;;5073898;28;20649;-70
2022/09/01 05:25:15;;;;;;;4.40;1.70;;;23.70;99.90;;;;;;5073670;28;20229;-70
2022/09/01 05:27:51;;;;;;;7.80;2.20;;;23.60;99.90;;;;;;5073513;28;20263;-69
2022/09/01 05:30:21;;;;;;;6.20;1.80;;;23.60;99.90;;;;;;5073685;28;20187;-70
2022/09/01 05:32:53;;;;;;;6.90;1.57;;;23.40;99.90;;;;;;5073596;28;20314;-69
2022/09/01 05:35:23;;;;;;;7.80;2.43;;;23.10;99.90;;;;;;5073639;28;20265;-68
2022/09/01 05:37:51;;;;;;;2.50;1.63;;;23.00;99.90;;;;;;5072287;28;20201;-69
2022/09/01 05:40:20;;;;;;;5.00;1.50;;;23.00;99.90;;;;;;5072725;28;20523;-68
2022/09/01 05:42:55;;;;;;;4.37;1.80;;;22.90;99.90;;;;;;5071699;28;20257;-68
2022/09/01 05:45:25;;;;;;;5.93;1.63;;;23.00;99.90;;;;;;5072452;28;20192;-69
2022/09/01 05:47:58;;;;;;;8.23;1.97;;;23.20;99.90;;;;;;5072184;28;20195;-69
2022/09/01 05:50:27;;;;;;;3.47;1.50;;;23.30;99.90;;;;;;5071804;28;20255;-71
2022/09/01 05:52:57;;;;;;;5.70;1.87;;;23.20;99.90;;;;;;5073153;28;20226;-70
2022/09/01 05:55:26;;;;;;;5.47;2.00;;;23.10;99.90;;;;;;5073296;28;20263;-71
2022/09/01 05:58:12;;;;;;;2.90;1.60;;;23.10;99.90;;;;;;5073289;28;20209;-69
2022/09/01 06:00:48;;;;;;;5.80;1.53;;;23.00;99.90;;;;;;5073325;28;20183;-70
2022/09/01 06:03:18;;;;;;;3.07;1.20;;;23.00;99.90;;;;;;5073484;28;20175;-71
2022/09/01 06:05:51;;;;;;;4.40;2.03;;;23.00;99.90;;;;;;5055374;28;20194;-70
2022/09/01 06:08:21;;;;;;;7.50;2.17;;;22.90;99.90;;;;;;5073100;28;20178;-69
2022/09/01 06:10:50;;;;;;;3.30;1.87;;;22.60;99.90;;;;;;5073869;28;20191;-71
2022/09/01 06:13:20;;;;;;;3.57;1.80;;;22.40;99.90;;;;;;5073098;28;20700;-70
2022/09/01 06:15:52;;;;;;;6.27;1.70;;;22.30;99.90;;;;;;5073009;28;20520;-71
2022/09/01 06:18:20;;;;;;;11.23;2.43;;;22.30;99.90;;;;;;5073126;28;20208;-69
2022/09/01 06:20:48;;;;;;;14.10;2.90;;;22.10;99.90;;;;;;5071366;28;20204;-70
2022/09/01 06:23:19;;;;;;;11.17;3.20;;;21.90;99.90;;;;;;5073027;28;20186;-70
2022/09/01 06:25:47;;;;;;;12.13;3.10;;;21.60;99.90;;;;;;5073203;28;20178;-70
2022/09/01 06:28:18;;;;;;;12.07;3.53;;;21.40;99.90;;;;;;5071631;28;20724;-70
2022/09/01 06:30:47;;;;;;;11.67;3.30;;;21.20;99.90;;;;;;5073002;28;20180;-70
2022/09/01 06:33:15;;;;;;;9.97;3.00;;;21.20;99.90;;;;;;5072945;28;20302;-69
2022/09/01 06:35:46;;;;;;;7.57;3.07;;;21.20;99.90;;;;;;5073044;28;20168;-69
2022/09/01 06:38:17;;;;;;;5.47;2.77;;;21.20;99.90;;;;;;5073007;28;20177;-69
2022/09/01 06:40:47;;;;;;;15.47;3.20;;;21.10;99.90;;;;;;5072828;28;20171;-71
2022/09/01 06:43:19;;;;;;;10.67;3.20;;;21.10;99.90;;;;;;5071481;28;20191;-71
2022/09/01 06:45:54;;;;;;;9.20;2.80;;;21.10;99.90;;;;;;5072821;28;20590;-69
2022/09/01 06:48:22;;;;;;;11.40;2.60;;;21.00;99.90;;;;;;5072772;28;20172;-70
2022/09/01 06:50:50;;;;;;;9.27;2.50;;;20.90;99.90;;;;;;5072518;28;20316;-70
2022/09/01 06:53:20;;;;;;;11.10;2.93;;;20.90;99.90;;;;;;5073113;28;20216;-71
2022/09/01 06:55:55;;;;;;;12.87;3.23;;;20.80;99.90;;;;;;5072616;28;20268;-71
2022/09/01 06:58:24;;;;;;;15.87;3.33;;;20.70;99.90;;;;;;5072660;28;20183;-70
2022/09/01 07:00:52;;;;;;;11.83;2.50;;;20.70;99.90;;;;;;5072623;28;20615;-70
2022/09/01 07:03:23;;;;;;;11.17;3.03;;;20.50;99.90;;;;;;5076491;28;20184;-69
2022/09/01 07:05:57;;;;;;;10.73;3.57;;;20.40;99.90;;;;;;5076249;28;20189;-70
2022/09/01 07:08:24;;;;;;;8.00;2.50;;;20.30;99.90;;;;;;5076497;28;20190;-71
2022/09/01 07:10:55;;;;;;;10.33;2.90;;;20.20;99.90;;;;;;5076625;28;20578;-72
2022/09/01 07:13:24;;;;;;;8.13;3.10;;;20.20;99.90;;;;;;5074500;28;20212;-71
2022/09/01 07:15:57;;;;;;;17.80;3.77;;;20.10;99.90;;;;;;5073556;28;20277;-70
2022/09/01 07:18:26;;;;;;;11.57;3.23;;;19.90;99.90;;;;;;5074727;28;20180;-70
2022/09/01 07:20:54;;;;;;;8.90;3.00;;;19.80;99.90;;;;;;5075105;28;20181;-70
2022/09/01 07:23:23;;;;;;;10.70;2.87;;;19.70;99.90;;;;;;5065089;28;20195;-70
2022/09/01 07:25:54;;;;;;;17.47;3.10;;;19.60;99.90;;;;;;5074444;28;20183;-69
2022/09/01 07:28:23;;;;;;;13.00;3.40;;;19.50;99.90;;;;;;5074281;28;20183;-71
2022/09/01 07:30:52;;;;;;;11.63;3.97;;;19.40;99.90;;;;;;5074148;28;20646;-71
2022/09/01 07:33:23;;;;;;;16.57;3.47;;;19.30;99.90;;;;;;5074491;28;20215;-70
2022/09/01 07:35:54;;;;;;;11.10;2.83;;;19.30;99.90;;;;;;5072783;28;20206;-71
2022/09/01 07:38:23;;;;;;;12.33;4.07;;;19.20;99.90;;;;;;5074574;28;20313;-70
2022/09/01 07:40:54;;;;;;;16.00;3.07;;;19.10;99.90;;;;;;5074248;28;20192;-71
2022/09/01 07:43:25;;;;;;;15.67;2.80;;;19.00;99.90;;;;;;5074280;28;20191;-71
2022/09/01 07:45:55;;;;;;;11.87;2.70;;;18.80;99.90;;;;;;5073978;28;20184;-71
2022/09/01 07:48:26;;;;;;;16.57;2.77;;;18.80;99.90;;;;;;5074108;28;20233;-71
2022/09/01 07:50:56;;;;;;;19.07;3.43;;;18.70;99.90;;;;;;5072606;28;20243;-70
2022/09/01 07:53:26;;;;;;;13.80;2.87;;;18.60;99.90;;;;;;5073905;28;20589;-69
2022/09/01 07:55:56;;;;;;;15.40;3.83;;;18.60;99.90;;;;;;5073820;28;20191;-70
2022/09/01 07:58:26;;;;;;;19.60;3.20;;;18.40;99.90;;;;;;5073969;28;20168;-70
2022/09/01 08:00:58;;;;;;;12.73;2.83;;;18.40;99.90;;;;;;5072727;28;20330;-70
2022/09/01 08:03:26;;;;;;;20.73;3.10;;;18.30;99.90;;;;;;5073433;28;20196;-71
2022/09/01 08:05:58;;;;;;;18.80;3.50;;;18.30;99.90;;;;;;5073458;28;20181;-70
2022/09/01 08:08:26;;;;;;;15.30;3.40;;;18.20;99.90;;;;;;5073791;28;20219;-69
2022/09/01 08:10:53;;;;;;;18.60;4.17;;;18.20;99.90;;;;;;5073577;28;20180;-73
2022/09/01 08:13:21;;;;;;;17.00;4.00;;;18.10;99.90;;;;;;5072629;28;20564;-70
2022/09/01 08:15:48;;;;;;;15.03;4.53;;;18.00;99.90;;;;;;5073360;28;20559;-69
2022/09/01 08:18:16;;;;;;;17.27;3.57;;;18.00;99.90;;;;;;5073223;28;20194;-70
2022/09/01 08:20:46;;;;;;;21.00;3.93;;;18.00;99.90;;;;;;5073550;28;20179;-71
2022/09/01 08:23:17;;;;;;;20.40;3.30;;;17.90;99.90;;;;;;5073254;28;20175;-70
2022/09/01 08:25:47;;;;;;;11.07;3.10;;;17.90;99.90;;;;;;5073197;28;20266;-69
2022/09/01 08:28:16;;;;;;;13.67;3.30;;;17.80;99.90;;;;;;5072861;28;20188;-71
2022/09/01 08:30:44;;;;;;;15.87;3.50;;;17.80;99.90;;;;;;5071971;28;20176;-69
2022/09/01 08:33:15;;;;;;;17.00;4.23;;;17.70;99.90;;;;;;5073110;28;20247;-71
2022/09/01 08:35:46;;;;;;;16.50;3.53;;;17.60;99.90;;;;;;5073244;28;20188;-70
2022/09/01 08:38:13;;;;;;;14.43;2.97;;;17.60;99.90;;;;;;5074138;28;20176;-70
2022/09/01 08:40:42;;;;;;;20.60;3.83;;;17.60;99.90;;;;;;5074753;28;20558;-71
2022/09/01 08:43:31;;;;;;;14.17;3.27;;;17.60;99.90;;;;;;5072788;28;20320;-70
2022/09/01 08:46:16;;;;;;;13.37;2.93;;;17.50;99.90;;;;;;5073835;28;20564;-71
2022/09/01 08:48:50;;;;;;;13.33;2.67;;;17.50;99.90;;;;;;5073868;28;20180;-71
2022/09/01 08:51:57;;;;;;;12.70;3.47;;;17.40;99.90;;;;;;5034226;28;20272;-70
2022/09/01 08:54:46;;;;;;;13.77;3.47;;;17.40;99.90;;;;;;5033436;28;20200;-69
2022/09/01 08:57:31;;;;;;;14.37;2.80;;;17.30;99.90;;;;;;5034574;28;20277;-71
2022/09/01 08:59:59;;;;;;;13.47;3.10;;;17.30;99.90;;;;;;5034764;28;20227;-70
2022/09/01 09:02:50;;;;;;;23.30;7.20;;;17.20;99.90;;;;;;5061678;28;20184;-69
2022/09/01 09:05:50;;;;;;;18.17;7.03;;;17.20;99.90;;;;;;5074162;28;20668;-70
2022/09/01 09:08:35;;;;;;;23.07;5.90;;;17.00;99.90;;;;;;5073669;28;20180;-70
2022/09/01 09:11:11;;;;;;;14.13;4.70;;;17.10;99.90;;;;;;5073911;28;20200;-70
2022/09/01 09:13:44;;;;;;;41.97;13.73;;;17.10;99.90;;;;;;5073952;28;20725;-71
2022/09/01 09:16:33;;;;;;;26.13;6.90;;;17.00;99.90;;;;;;5074645;28;20311;-71
2022/09/01 09:19:29;;;;;;;22.40;5.23;;;17.00;99.90;;;;;;5075426;28;20656;-70
2022/09/01 09:21:58;;;;;;;18.93;3.20;;;17.00;99.90;;;;;;5076343;28;20662;-71
2022/09/01 09:24:58;;;;;;;16.70;4.07;;;17.00;99.90;;;;;;5073809;28;20537;-70
2022/09/01 09:27:28;;;;;;;19.90;4.13;;;17.00;99.90;;;;;;5073802;28;20187;-70
2022/09/01 09:30:02;;;;;;;16.20;4.40;;;16.90;99.90;;;;;;5074036;28;20176;-70
2022/09/01 09:32:59;;;;;;;14.77;3.60;;;17.00;99.90;;;;;;5073760;28;20314;-69
2022/09/01 09:35:44;;;;;;;23.97;7.73;;;16.90;99.90;;;;;;5073713;28;20177;-69
2022/09/01 09:41:25;;;;;;;20.97;6.63;;;17.00;99.90;;;;;;5072219;28;20601;-70
2022/09/01 09:44:09;;;;;;;20.43;4.83;;;16.90;99.90;;;;;;5073491;28;20172;-69
2022/09/01 09:46:42;;;;;;;35.33;13.80;;;16.90;99.90;;;;;;5073400;28;20172;-70
2022/09/01 09:49:28;;;;;;;19.97;6.53;;;16.90;99.90;;;;;;5072350;28;20172;-70
2022/09/01 09:52:07;;;;;;;27.87;6.40;;;16.90;99.90;;;;;;5073114;28;20235;-69
2022/09/01 09:54:55;;;;;;;20.13;6.90;;;16.90;99.90;;;;;;5073743;28;20204;-69
2022/09/01 09:57:31;;;;;;;23.03;8.07;;;16.80;99.90;;;;;;5073059;28;20211;-71
2022/09/01 10:00:34;;;;;;;17.20;8.00;;;16.70;99.90;;;;;;5072439;28;20184;-71
2022/09/01 10:03:06;;;;;;;19.83;7.40;;;16.70;99.90;;;;;;5051009;28;20187;-70
2022/09/01 10:05:51;;;;;;;21.07;5.20;;;16.60;99.90;;;;;;5069822;28;20192;-71
2022/09/01 10:08:36;;;;;;;15.67;4.13;;;16.50;99.90;;;;;;5073277;28;20278;-70
2022/09/01 10:11:05;;;;;;;12.07;4.13;;;16.40;99.90;;;;;;5073557;28;20524;-70
2022/09/01 10:13:35;;;;;;;14.37;3.90;;;16.30;99.90;;;;;;5072919;28;20211;-70
2022/09/01 10:16:08;;;;;;;16.87;4.27;;;16.20;99.90;;;;;;5073073;28;20172;-69
2022/09/01 10:18:46;;;;;;;18.67;4.17;;;16.10;99.90;;;;;;5073390;28;20292;-70
2022/09/01 10:21:28;;;;;;;13.80;3.30;;;16.00;99.90;;;;;;5073200;28;20167;-70
2022/09/01 10:23:55;;;;;;;16.70;2.90;;;16.00;99.90;;;;;;5073664;28;20538;-70
2022/09/01 10:26:40;;;;;;;17.63;4.37;;;15.90;99.90;;;;;;5073100;28;20251;-71
2022/09/01 10:29:34;;;;;;;14.33;3.57;;;16.00;99.90;;;;;;5073799;28;20168;-71
2022/09/01 10:32:07;;;;;;;15.23;3.90;;;15.90;99.90;;;;;;5069922;28;20188;-71
2022/09/01 10:34:37;;;;;;;16.80;3.80;;;15.90;99.90;;;;;;5073002;28;20660;-70
2022/09/01 10:37:06;;;;;;;13.20;3.40;;;15.80;99.90;;;;;;5075144;28;20176;-69
2022/09/01 10:39:33;;;;;;;18.23;3.80;;;15.80;99.90;;;;;;5077106;28;20187;-69
2022/09/01 10:42:21;;;;;;;16.53;3.50;;;15.70;99.90;;;;;;5076940;28;20645;-70
2022/09/01 10:44:57;;;;;;;18.93;3.70;;;15.70;99.90;;;;;;5075477;28;20641;-70
2022/09/01 10:47:36;;;;;;;11.67;3.07;;;15.60;99.90;;;;;;5076794;28;20180;-70
2022/09/01 10:50:30;;;;;;;18.03;4.00;;;15.50;99.90;;;;;;5076895;28;20167;-70
2022/09/01 10:53:04;;;;;;;15.87;4.20;;;15.40;99.90;;;;;;5076656;28;20737;-70
2022/09/01 10:56:02;;;;;;;13.73;3.83;;;15.40;99.90;;;;;;5075515;28;20190;-70
2022/09/01 10:58:30;;;;;;;15.13;4.43;;;15.40;99.90;;;;;;5076251;28;20267;-70
2022/09/01 11:01:01;;;;;;;20.30;5.57;;;15.30;99.90;;;;;;5076910;28;20195;-70
2022/09/01 11:03:55;;;;;;;13.30;4.47;;;15.20;99.90;;;;;;5076481;28;20179;-70
2022/09/01 11:06:42;;;;;;;14.90;4.23;;;15.10;99.90;;;;;;5076445;28;20228;-70
2022/09/01 11:09:32;;;;;;;12.23;3.83;;;15.00;99.90;;;;;;5076846;28;20651;-69
2022/09/01 11:12:37;;;;;;;11.87;3.70;;;15.00;99.90;;;;;;5076289;28;20168;-69
2022/09/01 11:15:26;;;;;;;13.23;4.13;;;14.90;99.90;;;;;;5075935;28;20179;-70
2022/09/01 11:17:58;;;;;;;10.70;4.03;;;14.90;99.90;;;;;;5072498;28;20645;-70
2022/09/01 11:20:41;;;;;;;21.17;3.97;;;14.80;99.90;;;;;;5076247;28;20222;-71
2022/09/01 11:23:23;;;;;;;10.90;4.10;;;14.80;99.90;;;;;;5076455;28;20186;-69
2022/09/01 11:26:31;;;;;;;14.90;3.77;;;14.80;99.90;;;;;;5076465;28;20171;-69
2022/09/01 11:29:00;;;;;;;20.83;4.57;;;14.70;99.90;;;;;;5068715;28;20198;-70
2022/09/01 11:31:43;;;;;;;12.57;3.40;;;14.70;99.90;;;;;;5076414;28;20186;-71
2022/09/01 11:34:16;;;;;;;10.33;2.97;;;14.70;99.90;;;;;;5075436;28;20573;-71
2022/09/01 11:36:48;;;;;;;11.37;3.83;;;14.70;99.90;;;;;;5075964;28;20659;-70
2022/09/01 11:39:18;;;;;;;13.70;3.53;;;14.60;99.90;;;;;;5076216;28;20584;-71
2022/09/01 11:41:54;;;;;;;13.37;3.60;;;14.50;99.90;;;;;;5076071;28;20179;-70
2022/09/01 11:44:34;;;;;;;16.60;4.07;;;14.50;99.90;;;;;;5075689;28;20318;-71
2022/09/01 11:47:15;;;;;;;10.83;3.13;;;14.50;99.90;;;;;;5036823;28;20191;-71
2022/09/01 11:50:23;;;;;;;17.70;3.70;;;14.50;99.90;;;;;;5033927;28;20185;-70
2022/09/01 11:53:00;;;;;;;12.63;3.60;;;14.40;99.90;;;;;;5029583;28;20236;-69
2022/09/01 11:55:35;;;;;;;13.87;4.10;;;14.50;99.90;;;;;;5075365;28;20180;-69
2022/09/01 11:58:04;;;;;;;14.40;3.50;;;14.50;99.90;;;;;;5075725;28;20175;-70
2022/09/01 12:00:37;;;;;;;7.57;3.13;;;14.40;99.90;;;;;;5075515;28;20703;-70
2022/09/01 12:03:30;;;;;;;10.57;3.17;;;14.50;99.90;;;;;;5075105;28;20176;-70
2022/09/01 12:06:02;;;;;;;11.87;3.50;;;14.40;99.90;;;;;;5069925;28;20244;-70
2022/09/01 12:08:35;;;;;;;18.60;3.77;;;14.40;99.90;;;;;;5075305;28;20184;-71
2022/09/01 12:11:06;;;;;;;16.83;3.93;;;14.40;99.90;;;;;;5075870;28;20175;-70
2022/09/01 12:13:34;;;;;;;10.93;3.40;;;14.40;99.90;;;;;;5074962;28;20222;-70
2022/09/01 12:16:10;;;;;;;13.33;3.90;;;14.40;99.90;;;;;;5074899;28;20258;-71
2022/09/01 12:18:46;;;;;;;13.07;3.80;;;14.30;99.90;;;;;;5074320;28;20183;-70
2022/09/01 12:21:42;;;;;;;11.90;3.70;;;14.30;99.90;;;;;;5074779;28;20186;-71
2022/09/01 12:24:22;;;;;;;13.00;3.77;;;14.30;99.90;;;;;;5042213;28;20250;-70
2022/09/01 12:26:57;;;;;;;18.63;4.47;;;14.30;99.90;;;;;;5075126;28;20206;-70
2022/09/01 12:29:26;;;;;;;13.80;3.27;;;14.30;99.90;;;;;;5074649;28;20171;-70
2022/09/01 12:31:55;;;;;;;13.67;3.57;;;14.30;99.90;;;;;;5075041;28;20176;-69
2022/09/01 12:34:33;;;;;;;14.27;3.60;;;14.20;99.90;;;;;;5074524;28;20180;-70
2022/09/01 12:37:07;;;;;;;15.57;3.83;;;14.20;99.90;;;;;;5075086;28;20175;-70
2022/09/01 12:39:38;;;;;;;11.93;3.70;;;14.20;99.90;;;;;;5075305;28;20176;-70
2022/09/01 12:42:20;;;;;;;13.50;4.07;;;14.20;99.90;;;;;;5075029;28;20218;-71
2022/09/01 12:44:52;;;;;;;16.40;4.63;;;14.20;99.90;;;;;;5074485;28;20171;-70
2022/09/01 12:47:35;;;;;;;11.10;4.10;;;14.20;99.90;;;;;;5074012;28;20180;-71
2022/09/01 12:50:08;;;;;;;14.87;3.93;;;14.20;99.90;;;;;;5074778;28;20254;-70
2022/09/01 12:52:44;;;;;;;17.13;4.60;;;14.20;99.90;;;;;;5075111;28;20242;-71
2022/09/01 12:55:24;;;;;;;12.00;4.17;;;14.20;99.90;;;;;;5073886;28;20197;-70
2022/09/01 12:57:59;;;;;;;14.97;4.13;;;14.10;99.90;;;;;;5074404;28;20220;-71
2022/09/01 13:00:32;;;;;;;20.77;4.97;;;14.20;99.90;;;;;;5074121;28;20171;-71
2022/09/01 13:03:03;;;;;;;16.73;4.57;;;14.20;99.90;;;;;;5074225;28;20178;-71
2022/09/01 13:05:35;;;;;;;16.03;5.30;;;14.20;99.90;;;;;;5074035;28;20182;-70
2022/09/01 13:08:07;;;;;;;18.73;4.53;;;14.20;99.90;;;;;;5072421;28;20548;-71
2022/09/01 13:10:38;;;;;;;17.37;5.17;;;14.20;99.90;;;;;;5074055;28;20184;-70
2022/09/01 13:13:07;;;;;;;17.70;4.83;;;14.20;99.90;;;;;;5074052;28;20240;-71
2022/09/01 13:15:38;;;;;;;12.33;4.87;;;14.10;99.90;;;;;;5073781;28;20249;-70
2022/09/01 13:18:06;;;;;;;24.13;5.53;;;14.00;99.90;;;;;;5074210;28;20218;-70
2022/09/01 13:20:35;;;;;;;16.13;5.53;;;13.90;99.90;;;;;;5073902;28;20180;-69
2022/09/01 13:23:02;;;;;;;15.47;4.47;;;13.90;99.90;;;;;;5073944;28;20203;-71